Time;durP1;ratioP1;P1;durP2;ratioP2;P2;SDS_P1;SDS_P2;PMS_P1;PMS_P2;Temp;Humidity;BMP_temperature;BMP_pressure;BME280_temperature;BME280_humidity;BME280_pressure;Samples;Min_cycle;Max_cycle;Signal;HPM_P1;HPM_P2
2023/03/01 00:01:30;;;;;;;20.60;12.80;;;0.90;29.30;;;;;;5033085;28;20656;-76
2023/03/01 00:03:57;;;;;;;16.93;12.20;;;0.90;29.10;;;;;;5032830;28;20306;-76
2023/03/01 00:06:24;;;;;;;22.93;12.87;;;0.90;29.80;;;;;;5032053;28;20421;-70
2023/03/01 00:08:50;;;;;;;17.27;11.47;;;0.90;30.60;;;;;;5036261;28;20414;-76
2023/03/01 00:11:20;;;;;;;14.47;12.00;;;0.90;31.10;;;;;;5036321;28;20421;-71
2023/03/01 00:13:49;;;;;;;19.33;13.23;;;0.90;32.30;;;;;;5036594;28;20402;-76
2023/03/01 00:16:21;;;;;;;16.17;12.80;;;0.90;34.10;;;;;;5035734;28;20433;-71
2023/03/01 00:18:47;;;;;;;18.10;12.20;;;0.90;36.60;;;;;;5036702;28;20406;-77
2023/03/01 00:21:13;;;;;;;20.40;13.30;;;0.90;36.40;;;;;;5036602;28;20441;-71
2023/03/01 00:23:40;;;;;;;24.83;13.40;;;0.90;39.70;;;;;;5036430;28;20489;-76
2023/03/01 00:26:11;;;;;;;15.90;12.40;;;0.90;41.40;;;;;;5035329;28;20208;-76
2023/03/01 00:28:37;;;;;;;22.77;13.40;;;0.90;45.30;;;;;;5036989;28;20422;-76
2023/03/01 00:31:08;;;;;;;25.03;14.37;;;0.90;41.80;;;;;;5036422;28;20394;-71
2023/03/01 00:33:33;;;;;;;16.43;12.17;;;0.90;45.70;;;;;;5036324;28;20471;-77
2023/03/01 00:36:00;;;;;;;19.57;12.77;;;0.90;48.40;;;;;;5035086;28;20942;-76
2023/03/01 00:38:26;;;;;;;20.57;14.27;;;0.90;48.40;;;;;;5036224;28;20259;-77
2023/03/01 00:40:52;;;;;;;19.97;13.17;;;0.90;46.70;;;;;;5036258;28;20394;-77
2023/03/01 00:43:18;;;;;;;22.17;13.50;;;0.90;50.40;;;;;;5036120;28;20414;-71
2023/03/01 00:45:43;;;;;;;19.60;13.63;;;0.80;44.10;;;;;;5035684;28;20215;-70
2023/03/01 00:48:09;;;;;;;25.13;13.60;;;0.80;48.40;;;;;;5036004;28;20425;-76
2023/03/01 00:50:35;;;;;;;25.70;14.40;;;0.80;49.00;;;;;;5036147;28;20625;-71
2023/03/01 00:53:00;;;;;;;22.37;14.87;;;0.90;53.90;;;;;;5036295;28;20250;-77
2023/03/01 00:55:26;;;;;;;21.57;13.23;;;0.90;57.70;;;;;;5035126;28;20188;-76
2023/03/01 00:57:52;;;;;;;19.27;14.73;;;0.90;60.90;;;;;;5035862;28;20175;-71
2023/03/01 01:00:18;;;;;;;30.17;15.60;;;1.00;62.50;;;;;;5054257;28;20547;-77
2023/03/01 01:02:45;;;;;;;26.83;17.10;;;1.00;67.00;;;;;;5037235;28;20248;-77
2023/03/01 01:05:11;;;;;;;28.63;17.00;;;1.00;70.10;;;;;;5034786;28;20456;-71
2023/03/01 01:07:37;;;;;;;31.50;17.53;;;1.00;74.60;;;;;;5034468;28;20417;-76
2023/03/01 01:10:03;;;;;;;25.90;17.13;;;1.10;85.00;;;;;;5035773;28;20839;-71
2023/03/01 01:12:29;;;;;;;30.60;15.47;;;1.10;88.60;;;;;;5034468;28;20250;-76
2023/03/01 01:14:54;;;;;;;33.20;18.60;;;1.10;88.60;;;;;;5034671;28;20422;-70
2023/03/01 01:17:20;;;;;;;21.83;15.60;;;1.10;88.60;;;;;;5036021;28;20254;-76
2023/03/01 01:19:46;;;;;;;37.60;15.67;;;1.10;88.70;;;;;;5035976;28;20226;-76
2023/03/01 01:22:12;;;;;;;28.27;15.97;;;1.10;94.00;;;;;;5035405;28;20179;-71
2023/03/01 01:24:37;;;;;;;23.23;12.83;;;1.10;97.50;;;;;;5034315;28;20970;-76
2023/03/01 01:27:03;;;;;;;26.53;14.57;;;1.10;99.90;;;;;;5035505;28;20199;-76
2023/03/01 01:29:29;;;;;;;22.30;13.03;;;1.10;99.90;;;;;;5034058;28;20241;-71
2023/03/01 01:31:54;;;;;;;18.50;13.40;;;1.10;99.90;;;;;;5034012;28;20175;-71
2023/03/01 01:34:22;;;;;;;26.10;16.57;;;1.10;99.90;;;;;;5034199;28;20286;-72
2023/03/01 01:36:49;;;;;;;21.47;14.27;;;1.10;99.90;;;;;;5034608;28;20207;-71
2023/03/01 01:39:15;;;;;;;18.70;13.87;;;1.00;99.90;;;;;;5035192;28;20775;-76
2023/03/01 01:41:42;;;;;;;16.37;12.10;;;1.00;99.90;;;;;;5035271;28;20411;-71
2023/03/01 01:44:18;;;;;;;24.13;16.08;;;1.00;99.90;;;;;;5034878;28;20414;-71
2023/03/01 01:46:48;;;;;;;23.43;13.47;;;1.00;99.90;;;;;;5034984;28;20183;-71
2023/03/01 01:49:29;;;;;;;19.70;12.95;;;0.90;99.90;;;;;;5034929;28;20402;-76
2023/03/01 01:52:09;;;;;;;16.35;13.63;;;0.90;99.90;;;;;;5035392;28;20540;-76
2023/03/01 01:54:40;;;;;;;19.60;13.57;;;0.90;99.90;;;;;;5033845;28;20628;-71
2023/03/01 01:57:12;;;;;;;22.73;12.90;;;0.90;99.90;;;;;;5034836;28;20417;-76
2023/03/01 01:59:39;;;;;;;21.10;12.98;;;0.90;99.90;;;;;;5047697;28;20405;-70
2023/03/01 02:02:05;;;;;;;26.85;13.02;;;0.90;99.90;;;;;;5054644;28;20167;-70
2023/03/01 02:04:32;;;;;;;19.93;12.07;;;0.80;99.90;;;;;;5053610;28;20213;-76
2023/03/01 02:07:04;;;;;;;21.35;13.18;;;0.80;99.90;;;;;;5054480;28;20397;-70
2023/03/01 02:09:30;;;;;;;21.07;12.43;;;0.70;99.90;;;;;;5046303;28;20167;-71
2023/03/01 02:11:57;;;;;;;14.57;10.67;;;0.70;99.90;;;;;;5034489;28;20925;-71
2023/03/01 02:14:23;;;;;;;17.80;10.85;;;0.70;99.90;;;;;;5032191;28;20964;-75
2023/03/01 02:16:49;;;;;;;19.17;9.67;;;0.80;99.90;;;;;;5034175;28;20191;-75
2023/03/01 02:19:35;;;;;;;18.73;10.70;;;0.60;99.90;;;;;;5033074;28;20190;-71
2023/03/01 02:22:18;;;;;;;16.33;9.85;;;0.60;99.90;;;;;;5034469;28;20521;-71
2023/03/01 02:24:53;;;;;;;12.77;9.82;;;0.50;99.90;;;;;;5033140;28;20227;-71
2023/03/01 02:27:24;;;;;;;20.10;10.88;;;0.50;99.90;;;;;;5033692;28;20253;-71
2023/03/01 02:29:50;;;;;;;19.15;10.30;;;0.50;99.90;;;;;;5033843;28;20614;-76
2023/03/01 02:32:24;;;;;;;23.30;11.10;;;0.60;99.90;;;;;;5034311;28;20179;-76
2023/03/01 02:34:55;;;;;;;13.18;9.18;;;0.70;99.90;;;;;;5032954;28;20430;-76
2023/03/01 02:37:24;;;;;;;15.97;11.47;;;0.70;99.90;;;;;;5034044;28;20233;-76
2023/03/01 02:39:57;;;;;;;14.45;9.32;;;0.70;99.90;;;;;;5034127;28;20433;-76
2023/03/01 02:42:29;;;;;;;19.40;11.10;;;0.70;99.90;;;;;;5034112;28;20172;-71
2023/03/01 02:44:55;;;;;;;17.27;9.82;;;0.70;99.90;;;;;;5052258;28;20252;-72
2023/03/01 02:47:20;;;;;;;39.20;11.97;;;0.80;99.90;;;;;;5053896;28;20175;-76
2023/03/01 02:49:46;;;;;;;13.97;9.87;;;0.80;99.90;;;;;;5053770;28;20167;-71
2023/03/01 02:52:26;;;;;;;16.53;9.43;;;0.80;99.90;;;;;;5053920;28;20225;-76
2023/03/01 02:55:08;;;;;;;15.40;10.70;;;0.70;99.90;;;;;;5052713;28;20285;-76
2023/03/01 02:57:37;;;;;;;21.88;9.75;;;0.70;99.90;;;;;;5053790;28;20175;-76
2023/03/01 03:00:19;;;;;;;23.73;9.10;;;0.70;99.90;;;;;;5040149;28;20191;-71
2023/03/01 03:02:46;;;;;;;25.93;10.60;;;0.60;99.90;;;;;;5053665;28;20398;-71
2023/03/01 03:05:15;;;;;;;20.53;10.03;;;0.60;99.90;;;;;;5052331;28;20441;-76
2023/03/01 03:07:44;;;;;;;12.60;9.43;;;0.60;99.90;;;;;;5053655;28;20405;-72
2023/03/01 03:10:16;;;;;;;31.15;10.25;;;0.60;99.90;;;;;;5053777;28;20797;-71
2023/03/01 03:12:42;;;;;;;17.03;9.80;;;0.70;99.90;;;;;;5052427;28;20308;-76
2023/03/01 03:15:12;;;;;;;14.63;9.00;;;0.70;99.90;;;;;;5052339;28;20898;-71
2023/03/01 03:17:40;;;;;;;24.90;10.40;;;0.80;99.90;;;;;;5052547;28;20183;-71
2023/03/01 03:20:10;;;;;;;11.33;9.80;;;0.80;99.90;;;;;;5053429;28;20813;-71
2023/03/01 03:22:40;;;;;;;23.35;10.45;;;0.60;99.90;;;;;;5053320;28;20405;-71
2023/03/01 03:25:10;;;;;;;13.60;10.20;;;0.60;99.90;;;;;;5051056;28;20217;-75
2023/03/01 03:27:37;;;;;;;22.05;9.75;;;0.60;99.90;;;;;;5053189;28;20528;-76
2023/03/01 03:30:08;;;;;;;17.00;10.30;;;0.60;99.90;;;;;;5053354;28;20167;-71
2023/03/01 03:32:38;;;;;;;19.80;10.10;;;0.60;99.90;;;;;;5053303;28;20166;-76
2023/03/01 03:35:09;;;;;;;20.37;9.87;;;0.60;99.90;;;;;;5049953;28;20606;-75
2023/03/01 03:40:23;;;;;;;20.20;10.75;;;0.60;99.90;;;;;;5053533;28;20202;-76
2023/03/01 03:42:49;;;;;;;20.93;9.47;;;0.60;99.90;;;;;;5054756;28;20627;-76
2023/03/01 03:45:16;;;;;;;15.70;10.13;;;0.60;99.90;;;;;;5056207;28;20206;-75
2023/03/01 03:47:41;;;;;;;16.52;9.85;;;0.50;99.90;;;;;;5057008;28;20237;-76
2023/03/01 03:50:09;;;;;;;18.13;8.73;;;0.40;99.90;;;;;;5056059;28;20263;-76
2023/03/01 03:52:34;;;;;;;25.88;9.23;;;0.30;99.90;;;;;;5056301;28;20809;-71
2023/03/01 03:55:00;;;;;;;31.27;8.00;;;0.20;99.90;;;;;;5055082;28;20202;-76
2023/03/01 03:57:26;;;;;;;21.40;10.17;;;0.00;99.90;;;;;;5056044;28;20171;-71
2023/03/01 03:59:51;;;;;;;15.83;9.00;;;0.00;99.90;;;;;;5042043;28;20186;-76
2023/03/01 04:02:21;;;;;;;15.37;10.47;;;0.00;99.90;;;;;;5037026;28;20167;-76
2023/03/01 04:04:52;;;;;;;17.58;8.88;;;0.00;99.90;;;;;;5051204;28;20203;-70
2023/03/01 04:07:18;;;;;;;16.58;7.93;;;0.10;99.90;;;;;;5036950;28;20167;-76
2023/03/01 04:09:44;;;;;;;14.83;9.90;;;0.10;99.90;;;;;;5037338;28;20226;-71
2023/03/01 04:12:10;;;;;;;18.85;9.18;;;0.10;99.90;;;;;;5035856;28;20168;-76
2023/03/01 04:14:36;;;;;;;21.60;10.10;;;0.10;99.90;;;;;;5035831;28;20575;-76
2023/03/01 04:17:05;;;;;;;19.33;9.90;;;0.20;99.90;;;;;;5036755;28;20171;-76
2023/03/01 04:19:35;;;;;;;10.05;8.98;;;0.30;99.90;;;;;;5036648;28;20862;-76
2023/03/01 04:22:07;;;;;;;13.15;8.80;;;0.20;99.90;;;;;;5036553;28;20563;-70
2023/03/01 04:24:33;;;;;;;24.80;10.55;;;0.10;99.90;;;;;;5036058;28;20188;-75
2023/03/01 04:26:59;;;;;;;12.32;8.93;;;0.10;99.90;;;;;;5035219;28;20168;-70
2023/03/01 04:29:25;;;;;;;11.87;8.97;;;0.20;99.90;;;;;;5036446;28;20193;-76
2023/03/01 04:31:50;;;;;;;15.83;8.90;;;0.20;99.90;;;;;;5036328;28;20222;-70
2023/03/01 04:34:16;;;;;;;20.40;8.70;;;0.20;99.90;;;;;;5034868;28;20513;-72
2023/03/01 04:36:41;;;;;;;17.43;8.30;;;0.30;99.90;;;;;;5033594;28;20191;-76
2023/03/01 04:39:11;;;;;;;11.57;7.67;;;0.30;99.90;;;;;;5035170;28;20203;-76
2023/03/01 04:41:39;;;;;;;13.00;7.57;;;0.20;99.90;;;;;;5035575;28;20262;-70
2023/03/01 04:44:05;;;;;;;20.40;7.90;;;0.10;99.90;;;;;;5033414;28;20190;-70
2023/03/01 04:46:31;;;;;;;24.65;9.02;;;0.00;99.90;;;;;;5033071;28;20279;-76
2023/03/01 04:48:57;;;;;;;26.23;8.38;;;0.00;99.90;;;;;;5035122;28;20175;-70
2023/03/01 04:51:23;;;;;;;10.07;7.67;;;0.00;99.90;;;;;;5035023;28;20172;-76
2023/03/01 04:53:49;;;;;;;17.43;9.17;;;0.00;99.90;;;;;;5034610;28;20678;-70
2023/03/01 04:56:17;;;;;;;16.60;8.45;;;0.10;99.90;;;;;;5032859;28;20200;-76
2023/03/01 04:58:44;;;;;;;14.00;9.43;;;0.10;99.90;;;;;;5038319;28;20258;-70
2023/03/01 05:01:15;;;;;;;13.23;8.65;;;0.20;99.90;;;;;;5035172;28;20167;-71
2023/03/01 05:03:45;;;;;;;11.43;7.75;;;0.20;99.90;;;;;;5034862;28;20172;-76
2023/03/01 05:06:11;;;;;;;16.65;8.85;;;0.10;99.90;;;;;;5033652;28;20199;-70
2023/03/01 05:08:38;;;;;;;16.33;9.02;;;0.20;99.90;;;;;;5034683;28;20180;-76
2023/03/01 05:11:05;;;;;;;22.13;7.63;;;0.10;99.90;;;;;;5033641;28;20544;-76
2023/03/01 05:13:31;;;;;;;13.38;8.75;;;0.20;99.90;;;;;;5034604;28;20521;-70
2023/03/01 05:16:00;;;;;;;21.50;9.43;;;0.20;99.90;;;;;;5034085;28;20215;-75
2023/03/01 05:18:30;;;;;;;28.30;8.80;;;0.10;99.90;;;;;;5034451;28;20250;-75
2023/03/01 05:21:03;;;;;;;16.10;9.48;;;0.10;99.90;;;;;;5034556;28;20159;-76
2023/03/01 05:23:33;;;;;;;18.20;8.55;;;0.10;99.90;;;;;;5034468;28;20172;-71
2023/03/01 05:26:00;;;;;;;24.00;9.95;;;0.10;99.90;;;;;;5033349;28;20200;-75
2023/03/01 05:28:28;;;;;;;18.45;9.60;;;0.10;99.90;;;;;;5034235;28;20168;-70
2023/03/01 05:30:54;;;;;;;20.13;7.85;;;0.00;99.90;;;;;;5034286;28;20168;-70
2023/03/01 05:33:21;;;;;;;11.48;8.40;;;0.00;99.90;;;;;;5033774;28;20222;-76
2023/03/01 05:35:48;;;;;;;14.80;9.80;;;0.10;99.90;;;;;;4993418;28;1169317;-70
2023/03/01 05:38:15;;;;;;;14.90;9.02;;;0.10;99.90;;;;;;5035078;28;20172;-76
2023/03/01 05:40:43;;;;;;;21.02;8.60;;;0.10;99.90;;;;;;5035132;28;20190;-71
2023/03/01 05:43:10;;;;;;;14.10;8.48;;;0.10;99.90;;;;;;5035192;28;20168;-76
2023/03/01 05:45:37;;;;;;;19.20;8.75;;;0.00;99.90;;;;;;5034210;28;20664;-70
2023/03/01 05:48:04;;;;;;;11.30;7.70;;;0.10;99.90;;;;;;5035184;28;20616;-76
2023/03/01 05:50:34;;;;;;;21.15;10.65;;;0.10;99.90;;;;;;5035435;28;20592;-76
2023/03/01 05:53:02;;;;;;;19.25;8.43;;;0.10;99.90;;;;;;5034902;28;20244;-75
2023/03/01 05:55:29;;;;;;;20.52;7.93;;;0.20;99.90;;;;;;5033947;28;20187;-66
2023/03/01 05:57:58;;;;;;;12.55;7.80;;;0.20;99.90;;;;;;5034810;28;20213;-72
2023/03/01 06:00:24;;;;;;;18.27;8.75;;;0.20;99.90;;;;;;5053247;28;20411;-72
2023/03/01 06:02:51;;;;;;;20.77;10.10;;;0.20;99.90;;;;;;5054668;28;20564;-71
2023/03/01 06:05:17;;;;;;;13.23;9.02;;;0.30;99.90;;;;;;5052704;28;20456;-72
2023/03/01 06:07:43;;;;;;;27.15;10.18;;;0.30;99.90;;;;;;5044443;28;20192;-74
2023/03/01 06:10:10;;;;;;;12.80;9.25;;;0.30;99.90;;;;;;5034630;28;20191;-71
2023/03/01 06:12:38;;;;;;;13.88;9.00;;;0.30;99.90;;;;;;5043620;28;20183;-73
2023/03/01 06:15:06;;;;;;;21.17;8.75;;;0.30;99.90;;;;;;5053469;28;20197;-74
2023/03/01 06:17:37;;;;;;;14.77;8.93;;;0.20;99.90;;;;;;5054412;28;20517;-74
2023/03/01 06:20:05;;;;;;;19.60;9.05;;;0.10;99.90;;;;;;5053052;28;20232;-74
2023/03/01 06:22:30;;;;;;;12.27;8.73;;;0.10;99.90;;;;;;5054190;28;20232;-73
2023/03/01 06:24:56;;;;;;;16.00;10.37;;;0.20;99.90;;;;;;5041284;28;20207;-72
2023/03/01 06:27:22;;;;;;;10.03;7.87;;;0.20;99.90;;;;;;5034265;28;20505;-72
2023/03/01 06:29:48;;;;;;;13.10;8.50;;;0.20;99.90;;;;;;5033859;28;20183;-72
2023/03/01 06:32:14;;;;;;;14.23;7.80;;;0.20;99.90;;;;;;5054058;28;20183;-72
2023/03/01 06:34:40;;;;;;;11.70;8.73;;;0.10;99.90;;;;;;5052933;28;20249;-72
2023/03/01 06:37:06;;;;;;;23.57;8.30;;;0.10;99.90;;;;;;5053197;28;20186;-71
2023/03/01 06:39:33;;;;;;;12.90;8.05;;;0.10;99.90;;;;;;5051209;28;20183;-72
2023/03/01 06:41:59;;;;;;;22.08;9.07;;;0.00;99.90;;;;;;5053982;28;20681;-74
2023/03/01 06:44:25;;;;;;;20.13;8.48;;;-0.10;99.90;;;;;;5051554;28;20206;-71
2023/03/01 06:46:51;;;;;;;18.20;8.37;;;-0.10;99.90;;;;;;5053528;28;20263;-68
2023/03/01 06:49:17;;;;;;;9.83;8.20;;;0.00;99.90;;;;;;5051879;28;20826;-74
2023/03/01 06:51:43;;;;;;;10.50;8.18;;;0.10;99.90;;;;;;5053893;28;20213;-68
2023/03/01 06:54:10;;;;;;;15.13;8.23;;;0.00;99.90;;;;;;5040762;28;20183;-69
2023/03/01 06:56:36;;;;;;;12.63;7.63;;;0.00;99.90;;;;;;5033149;28;20270;-72
2023/03/01 06:59:02;;;;;;;10.23;7.00;;;-0.10;99.90;;;;;;5033656;28;20251;-73
2023/03/01 07:01:29;;;;;;;12.70;8.10;;;0.00;99.90;;;;;;5033734;28;20399;-73
2023/03/01 07:03:54;;;;;;;19.38;7.78;;;0.00;99.90;;;;;;5042050;28;20265;-68
2023/03/01 07:06:21;;;;;;;8.33;6.90;;;0.10;99.90;;;;;;5032433;28;20604;-74
2023/03/01 07:08:47;;;;;;;10.88;8.60;;;0.10;99.90;;;;;;5033583;28;20294;-72
2023/03/01 07:11:13;;;;;;;13.30;6.77;;;0.20;99.90;;;;;;5033524;28;20210;-73
2023/03/01 07:13:39;;;;;;;12.87;7.40;;;0.30;99.90;;;;;;5033130;28;20494;-74
2023/03/01 07:16:05;;;;;;;13.90;6.10;;;0.40;99.90;;;;;;5032320;28;20452;-68
2023/03/01 07:18:30;;;;;;;19.13;7.20;;;0.40;99.90;;;;;;5033582;28;20402;-73
2023/03/01 07:20:56;;;;;;;13.17;7.63;;;0.30;99.90;;;;;;5033393;28;20179;-68
2023/03/01 07:23:22;;;;;;;14.00;8.27;;;0.40;99.90;;;;;;5036007;28;20177;-74
2023/03/01 07:25:53;;;;;;;13.03;7.80;;;0.50;99.90;;;;;;5051251;28;20215;-74
2023/03/01 07:28:18;;;;;;;11.43;7.70;;;0.60;99.90;;;;;;5053314;28;20182;-74
2023/03/01 07:30:44;;;;;;;8.43;6.90;;;0.70;99.90;;;;;;5053185;28;20159;-73
2023/03/01 07:33:10;;;;;;;9.63;6.27;;;0.70;99.90;;;;;;5045310;28;20155;-73
2023/03/01 07:35:36;;;;;;;8.30;5.97;;;0.60;99.90;;;;;;5032163;28;20450;-68
2023/03/01 07:38:01;;;;;;;11.30;7.67;;;0.70;99.90;;;;;;5048983;28;20189;-73
2023/03/01 07:40:27;;;;;;;6.70;6.00;;;0.80;99.90;;;;;;5053006;28;20277;-68
2023/03/01 07:42:57;;;;;;;7.97;6.70;;;0.80;99.90;;;;;;5049449;28;20188;-74
2023/03/01 07:45:24;;;;;;;9.63;6.43;;;0.90;99.90;;;;;;5031950;28;20273;-73
2023/03/01 07:47:51;;;;;;;12.55;7.45;;;0.80;99.90;;;;;;5039091;28;20773;-73
2023/03/01 07:50:17;;;;;;;13.70;6.63;;;0.80;99.90;;;;;;5053169;28;20170;-73
2023/03/01 07:52:46;;;;;;;17.95;6.90;;;0.80;99.90;;;;;;5052231;28;20866;-74
2023/03/01 07:55:12;;;;;;;14.73;7.40;;;0.80;99.90;;;;;;5051996;28;20264;-73
2023/03/01 07:57:38;;;;;;;15.03;7.37;;;0.90;99.90;;;;;;5051672;28;20897;-73
2023/03/01 08:00:04;;;;;;;18.50;8.07;;;0.90;99.90;;;;;;5053105;28;20405;-68
2023/03/01 08:02:31;;;;;;;12.10;7.43;;;1.00;99.90;;;;;;5051939;28;20429;-68
2023/03/01 08:04:57;;;;;;;10.03;7.40;;;1.00;99.90;;;;;;5050798;28;20472;-73
2023/03/01 08:07:22;;;;;;;14.43;9.37;;;1.10;99.90;;;;;;5052830;28;20408;-73
2023/03/01 08:09:48;;;;;;;12.87;8.40;;;1.10;99.90;;;;;;5051631;28;20220;-68
2023/03/01 08:12:16;;;;;;;12.10;8.20;;;1.20;99.90;;;;;;5052838;28;20616;-73
2023/03/01 08:14:41;;;;;;;24.40;9.60;;;1.30;99.90;;;;;;5050919;28;20173;-73
2023/03/01 08:17:07;;;;;;;14.10;8.90;;;1.40;99.90;;;;;;5052821;28;20405;-68
2023/03/01 08:19:34;;;;;;;16.30;9.97;;;1.40;99.90;;;;;;5050227;28;20198;-68
2023/03/01 08:22:02;;;;;;;19.27;9.83;;;1.40;99.90;;;;;;5041413;28;20182;-73
2023/03/01 08:24:28;;;;;;;13.80;8.37;;;1.40;99.90;;;;;;5034276;28;20458;-73
2023/03/01 08:26:54;;;;;;;12.13;9.27;;;1.50;99.90;;;;;;5048014;28;20441;-69
2023/03/01 08:29:20;;;;;;;9.47;7.50;;;1.50;99.90;;;;;;5048878;28;20483;-74
2023/03/01 08:31:47;;;;;;;14.13;9.00;;;1.70;99.90;;;;;;5054881;28;20175;-69
2023/03/01 08:34:16;;;;;;;14.00;9.53;;;1.80;99.90;;;;;;5054933;28;20432;-69
2023/03/01 08:36:44;;;;;;;15.97;9.77;;;1.70;99.90;;;;;;5055640;28;20922;-69
2023/03/01 08:39:12;;;;;;;15.33;9.60;;;1.70;99.90;;;;;;5057181;28;20417;-69
2023/03/01 08:41:38;;;;;;;10.73;9.07;;;1.80;99.90;;;;;;5037883;28;20453;-68
2023/03/01 08:44:04;;;;;;;12.73;9.70;;;1.90;99.90;;;;;;5045823;28;20494;-69
2023/03/01 08:46:38;;;;;;;13.20;9.70;;;2.00;99.90;;;;;;5055191;28;20484;-72
2023/03/01 08:49:06;;;;;;;12.90;10.27;;;2.10;99.90;;;;;;5056134;28;20817;-68
2023/03/01 08:51:36;;;;;;;13.33;8.80;;;2.10;99.90;;;;;;5053668;28;20432;-68
2023/03/01 08:54:03;;;;;;;9.73;8.30;;;2.10;99.90;;;;;;5039311;28;20429;-72
2023/03/01 08:56:29;;;;;;;14.10;9.30;;;2.00;99.90;;;;;;5035512;28;20431;-67
2023/03/01 08:58:54;;;;;;;9.03;8.07;;;1.90;99.90;;;;;;5055892;28;20417;-72
2023/03/01 09:01:20;;;;;;;14.17;9.80;;;1.80;99.90;;;;;;5055932;28;20167;-72
2023/03/01 09:03:46;;;;;;;11.60;8.20;;;1.70;99.90;;;;;;5048813;28;20182;-72
2023/03/01 09:06:13;;;;;;;14.50;9.97;;;1.70;99.90;;;;;;5040340;28;20239;-72
2023/03/01 09:08:44;;;;;;;23.47;8.70;;;1.80;99.90;;;;;;5035809;28;20406;-73
2023/03/01 09:11:12;;;;;;;13.60;8.33;;;1.80;99.90;;;;;;5035266;28;20429;-68
2023/03/01 09:13:38;;;;;;;15.27;9.87;;;1.90;99.90;;;;;;5037136;28;20464;-73
2023/03/01 09:16:06;;;;;;;12.93;9.20;;;2.00;99.90;;;;;;5054505;28;20910;-73
2023/03/01 09:18:33;;;;;;;12.13;10.13;;;2.10;99.90;;;;;;5055741;28;20437;-73
2023/03/01 09:21:07;;;;;;;11.27;9.50;;;2.10;99.90;;;;;;5048434;28;20760;-73
2023/03/01 09:23:39;;;;;;;11.93;10.23;;;2.20;99.90;;;;;;5035553;28;20817;-73
2023/03/01 09:26:10;;;;;;;24.87;9.60;;;2.10;99.90;;;;;;5033209;28;20466;-70
2023/03/01 09:28:36;;;;;;;13.00;10.10;;;2.00;99.90;;;;;;5034534;28;20861;-68
2023/03/01 09:31:03;;;;;;;13.17;9.93;;;2.00;99.90;;;;;;5040169;28;20397;-68
2023/03/01 09:33:30;;;;;;;25.13;9.93;;;2.00;99.90;;;;;;5055174;28;20397;-73
2023/03/01 09:36:00;;;;;;;18.77;9.87;;;2.10;99.90;;;;;;5054028;28;20453;-73
2023/03/01 09:38:26;;;;;;;14.77;9.60;;;2.10;99.90;;;;;;5054126;28;20425;-68
2023/03/01 09:40:53;;;;;;;14.00;9.63;;;2.20;99.90;;;;;;5053832;28;20827;-69
2023/03/01 09:43:45;;;;;;;14.70;9.60;;;2.40;99.90;;;;;;5055106;28;20857;-73
2023/03/01 09:46:16;;;;;;;16.80;11.40;;;2.30;99.90;;;;;;5053720;28;20457;-69
2023/03/01 09:48:50;;;;;;;12.10;9.77;;;2.20;99.90;;;;;;5043470;28;20421;-68
2023/03/01 09:51:27;;;;;;;15.47;11.40;;;2.30;99.90;;;;;;5054925;28;20410;-73
2023/03/01 09:53:55;;;;;;;13.93;9.43;;;2.40;99.90;;;;;;5054808;28;20405;-73
2023/03/01 09:56:29;;;;;;;14.00;10.00;;;2.40;99.90;;;;;;5053551;28;20540;-69
2023/03/01 09:59:05;;;;;;;18.57;9.80;;;2.30;99.90;;;;;;5053558;28;20441;-69
2023/03/01 10:01:55;;;;;;;16.47;10.50;;;2.40;99.90;;;;;;5054724;28;20420;-69
2023/03/01 10:04:28;;;;;;;20.83;12.93;;;2.50;99.90;;;;;;5036311;28;20433;-70
2023/03/01 10:07:09;;;;;;;14.83;11.27;;;2.60;99.90;;;;;;5041795;28;20441;-73
2023/03/01 10:09:38;;;;;;;15.90;10.63;;;2.60;99.90;;;;;;5045580;28;20422;-68
2023/03/01 10:12:13;;;;;;;13.80;11.20;;;2.70;99.90;;;;;;5053540;28;20422;-74
2023/03/01 10:14:44;;;;;;;16.00;11.00;;;2.40;99.90;;;;;;5032691;28;20794;-74
2023/03/01 10:17:24;;;;;;;17.33;12.10;;;2.50;99.90;;;;;;5034086;28;20441;-67
2023/03/01 10:19:50;;;;;;;18.30;12.13;;;2.50;99.90;;;;;;5034270;28;20390;-74
2023/03/01 10:22:31;;;;;;;16.67;12.10;;;2.50;99.90;;;;;;5034737;28;20802;-68
2023/03/01 10:25:03;;;;;;;12.73;10.13;;;2.50;99.90;;;;;;5033260;28;20195;-74
2023/03/01 10:27:43;;;;;;;14.60;10.50;;;2.50;99.90;;;;;;5038597;28;20437;-74
2023/03/01 10:30:20;;;;;;;16.67;10.50;;;2.40;99.90;;;;;;5054182;28;20394;-74
2023/03/01 10:32:51;;;;;;;15.67;10.47;;;2.40;99.90;;;;;;5054008;28;20405;-70
2023/03/01 10:35:22;;;;;;;19.17;12.63;;;2.60;99.90;;;;;;5052366;28;20464;-74
2023/03/01 10:38:08;;;;;;;17.77;10.07;;;2.70;99.90;;;;;;5050965;28;20429;-74
2023/03/01 10:40:49;;;;;;;22.77;13.37;;;3.00;1.00;;;;;;5034495;28;20408;-74
2023/03/01 10:43:14;;;;;;;17.30;12.93;;;3.00;99.90;;;;;;5041957;28;20453;-70
2023/03/01 10:45:40;;;;;;;21.47;13.97;;;2.90;99.90;;;;;;5032856;28;20851;-75
2023/03/01 10:48:25;;;;;;;20.77;14.00;;;3.10;99.90;;;;;;5047852;28;20636;-70
2023/03/01 10:50:57;;;;;;;21.90;13.00;;;3.40;99.90;;;;;;5053251;28;20413;-69
2023/03/01 10:53:34;;;;;;;22.05;13.30;;;3.40;99.90;;;;;;5053261;28;20441;-70
2023/03/01 10:56:09;;;;;;;24.40;13.87;;;3.40;99.90;;;;;;5051919;28;20205;-70
2023/03/01 10:58:36;;;;;;;19.40;12.47;;;3.30;99.90;;;;;;5042708;28;20515;-70
2023/03/01 11:01:09;;;;;;;17.17;12.47;;;3.20;99.90;;;;;;5035586;28;20406;-69
2023/03/01 11:03:37;;;;;;;17.93;12.03;;;3.10;99.90;;;;;;5038932;28;20403;-69
2023/03/01 11:06:12;;;;;;;18.10;12.13;;;3.00;99.90;;;;;;5052613;28;20806;-74
2023/03/01 11:08:50;;;;;;;21.30;12.93;;;3.00;99.90;;;;;;5052518;28;20432;-69
2023/03/01 11:11:42;;;;;;;19.00;13.47;;;3.00;99.90;;;;;;5053401;28;20401;-70
2023/03/01 11:14:32;;;;;;;20.00;12.23;;;3.20;99.90;;;;;;5048625;28;20449;-69
2023/03/01 11:17:01;;;;;;;20.40;13.90;;;3.20;99.90;;;;;;5039858;28;20440;-74
2023/03/01 11:19:27;;;;;;;16.37;11.50;;;3.20;99.90;;;;;;5039993;28;20430;-68
2023/03/01 11:22:03;;;;;;;17.70;13.30;;;3.30;99.90;;;;;;5053331;28;20735;-69
2023/03/01 11:24:46;;;;;;;17.60;11.93;;;3.40;99.90;;;;;;5044032;28;20175;-69
2023/03/01 11:27:22;;;;;;;15.53;11.50;;;3.40;99.90;;;;;;5033609;28;20951;-69
2023/03/01 11:30:25;;;;;;;23.30;12.50;;;3.30;99.90;;;;;;5043262;28;20472;-74
2023/03/01 11:33:03;;;;;;;17.20;13.13;;;3.30;99.90;;;;;;5033237;28;20410;-74
2023/03/01 11:35:30;;;;;;;12.43;10.60;;;3.30;99.90;;;;;;5032207;28;20449;-74
2023/03/01 11:38:03;;;;;;;15.60;11.47;;;3.40;99.90;;;;;;5033259;28;20914;-74
2023/03/01 11:40:40;;;;;;;18.37;11.20;;;3.50;99.90;;;;;;5045652;28;20965;-74
2023/03/01 11:43:16;;;;;;;14.33;10.53;;;3.60;99.90;;;;;;5051990;28;20548;-74
2023/03/01 11:46:12;;;;;;;14.93;10.30;;;3.80;99.90;;;;;;5050763;28;21036;-74
2023/03/01 11:48:59;;;;;;;16.47;11.20;;;4.30;99.90;;;;;;5052168;28;20882;-74
2023/03/01 11:51:40;;;;;;;13.17;10.97;;;4.40;99.90;;;;;;5032948;28;20892;-69
2023/03/01 11:54:22;;;;;;;15.37;10.20;;;4.20;99.90;;;;;;5032791;28;20741;-73
2023/03/01 11:57:03;;;;;;;10.83;9.10;;;4.30;99.90;;;;;;5033256;28;20870;-69
2023/03/01 11:59:45;;;;;;;12.90;9.83;;;4.20;99.90;;;;;;5050467;28;20432;-68
2023/03/01 12:02:23;;;;;;;12.27;9.30;;;4.20;99.90;;;;;;5053187;28;20501;-74
2023/03/01 12:05:14;;;;;;;14.07;9.73;;;4.10;99.90;;;;;;5054368;28;20506;-74
2023/03/01 12:08:02;;;;;;;11.27;8.83;;;3.90;99.90;;;;;;5052967;28;20429;-68
2023/03/01 12:10:34;;;;;;;11.67;9.50;;;3.60;99.90;;;;;;5053570;28;20439;-74
2023/03/01 12:13:23;;;;;;;13.83;8.70;;;3.70;99.90;;;;;;5056746;28;20432;-69
2023/03/01 12:16:02;;;;;;;12.90;9.77;;;4.00;99.90;;;;;;5055772;28;20444;-69
2023/03/01 12:18:57;;;;;;;11.40;9.87;;;4.10;99.90;;;;;;5056769;28;20451;-69
2023/03/01 12:22:01;;;;;;;12.60;9.27;;;4.00;99.90;;;;;;5045499;28;20530;-70
2023/03/01 12:24:44;;;;;;;14.97;9.60;;;4.10;99.90;;;;;;5053369;28;20427;-69
2023/03/01 12:27:33;;;;;;;10.90;8.50;;;4.20;99.90;;;;;;5053220;28;20418;-69
2023/03/01 12:30:28;;;;;;;11.20;8.97;;;4.40;99.90;;;;;;5046818;28;20431;-74
2023/03/01 12:33:19;;;;;;;12.30;9.70;;;4.60;99.90;;;;;;5036280;28;20887;-69
2023/03/01 12:36:00;;;;;;;12.50;9.67;;;5.40;99.90;;;;;;5035286;28;20458;-69
2023/03/01 12:38:37;;;;;;;12.40;10.60;;;5.90;99.90;;;;;;5047794;28;20429;-74
2023/03/01 12:41:23;;;;;;;16.50;10.27;;;6.30;99.90;;;;;;5055035;28;20844;-74
2023/03/01 12:44:04;;;;;;;12.93;9.63;;;6.30;99.90;;;;;;5056053;28;20401;-71
2023/03/01 12:46:56;;;;;;;13.53;10.13;;;6.30;99.90;;;;;;5055208;28;20463;-69
2023/03/01 12:49:25;;;;;;;11.23;9.87;;;5.90;91.30;;;;;;5053958;28;20445;-70
2023/03/01 12:52:14;;;;;;;14.57;10.00;;;5.50;90.90;;;;;;5055854;28;20409;-74
2023/03/01 12:54:41;;;;;;;11.07;9.37;;;5.60;90.90;;;;;;5053739;28;20801;-69
2023/03/01 12:57:36;;;;;;;9.40;8.40;;;5.60;93.00;;;;;;5055900;28;20412;-77
2023/03/01 13:00:11;;;;;;;16.33;10.17;;;5.90;97.40;;;;;;5054549;28;20487;-71
2023/03/01 13:02:41;;;;;;;10.50;9.13;;;6.60;99.90;;;;;;5055737;28;20407;-77